ilmateenistus.ee keskkonnaagentuur.ee
EETN Tallinna lennuväli
FTEO31 EETN 182300
TAF EETN 182315Z 1900/1924 11010KT 8000 SCT007 BKN015 TEMPO 1900/1906
    3000 DZ BR BKN005 OVC010 TEMPO 1906/1912 16015G25KT TEMPO 1912/1918
    BKN012 SCT020CB PROB40 TEMPO 1918/1924 3000 BR OVC004=

METAR EETN 190420Z 13009KT 9999 OVC014 07/05 Q1019 R08/290195 NOSIG=
Tallinna lennuväli
EEKA Kärdla lennuväli
FCEO32 EETN 190400
TAF EEKA 190400Z 1905/1911 16017G30KT 9999 OVC012 TEMPO 1906/1911
    BKN005 OVC010=

METAR EEKA 190350Z 15014G29KT 9999 OVC011 08/05 Q1016=
Kärdla lennuväli
EEKE Kuressaare lennuväli
METAR EEKE 190350Z AUTO 16015KT 7000NDV OVC012 08/06 Q1016=
Kuressaare lennuväli
EEPU Pärnu lennuväli
METAR EEPU 190350Z NIL=
Pärnu lennuväli
EETU Tartu lennuväli
METAR EETU 190420Z AUTO 14010KT 9999 OVC014/// 06/04 Q1021=
Tartu lennuväli
EEEI Ämari lennuväli
METAR EEEI 190420Z AUTO 12007KT 090V150 9999 OVC014 07/05 Q1019=
Ämari lennuväli

Uudised

Lisainfo 24h: 666 0932 aviamet@envir.ee